sensor_id;sensor_type;location;lat;lon;timestamp;pressure;altitude;pressure_sealevel;temperature;humidity
81545;BME280;70990;50.618;7.346;2023-07-16T00:00:18;97737.41;;;18.67;65.87
81545;BME280;70990;50.618;7.346;2023-07-16T00:02:48;97746.75;;;18.64;65.83
81545;BME280;70990;50.618;7.346;2023-07-16T00:05:15;97743.38;;;18.60;66.07
81545;BME280;70990;50.618;7.346;2023-07-16T00:07:43;97752.41;;;18.54;66.38
81545;BME280;70990;50.618;7.346;2023-07-16T00:10:10;97752.16;;;18.43;66.85
81545;BME280;70990;50.618;7.346;2023-07-16T00:12:36;97747.53;;;18.40;66.92
81545;BME280;70990;50.618;7.346;2023-07-16T00:15:05;97761.97;;;18.39;66.92
81545;BME280;70990;50.618;7.346;2023-07-16T00:17:33;97753.13;;;18.40;66.90
81545;BME280;70990;50.618;7.346;2023-07-16T00:20:00;97759.25;;;18.30;67.65
81545;BME280;70990;50.618;7.346;2023-07-16T00:22:27;97753.81;;;18.26;67.31
81545;BME280;70990;50.618;7.346;2023-07-16T00:24:54;97759.78;;;18.19;67.34
81545;BME280;70990;50.618;7.346;2023-07-16T00:27:20;97756.38;;;18.15;67.24
81545;BME280;70990;50.618;7.346;2023-07-16T00:29:47;97767.25;;;18.13;67.54
81545;BME280;70990;50.618;7.346;2023-07-16T00:32:13;97759.06;;;18.09;67.75
81545;BME280;70990;50.618;7.346;2023-07-16T00:34:40;97761.41;;;18.11;67.84
81545;BME280;70990;50.618;7.346;2023-07-16T00:37:10;97761.56;;;18.07;67.77
81545;BME280;70990;50.618;7.346;2023-07-16T00:39:37;97771.69;;;18.05;68.14
81545;BME280;70990;50.618;7.346;2023-07-16T00:42:03;97775.28;;;17.96;68.35
81545;BME280;70990;50.618;7.346;2023-07-16T00:44:30;97769.50;;;18.00;68.14
81545;BME280;70990;50.618;7.346;2023-07-16T00:46:56;97762.56;;;17.95;68.28
81545;BME280;70990;50.618;7.346;2023-07-16T00:49:23;97765.22;;;17.90;68.70
81545;BME280;70990;50.618;7.346;2023-07-16T00:51:51;97763.66;;;17.89;68.66
81545;BME280;70990;50.618;7.346;2023-07-16T00:54:21;97765.88;;;17.85;68.32
81545;BME280;70990;50.618;7.346;2023-07-16T00:56:48;97767.13;;;17.84;68.86
81545;BME280;70990;50.618;7.346;2023-07-16T00:59:16;97770.69;;;17.84;69.08
81545;BME280;70990;50.618;7.346;2023-07-16T01:01:42;97770.09;;;17.80;68.95
81545;BME280;70990;50.618;7.346;2023-07-16T01:04:12;97770.09;;;17.80;69.25
81545;BME280;70990;50.618;7.346;2023-07-16T01:06:45;97768.22;;;17.77;69.42
81545;BME280;70990;50.618;7.346;2023-07-16T01:09:18;97763.28;;;17.72;69.37
81545;BME280;70990;50.618;7.346;2023-07-16T01:11:47;97764.09;;;17.63;69.47
81545;BME280;70990;50.618;7.346;2023-07-16T01:14:16;97783.19;;;17.65;69.83
81545;BME280;70990;50.618;7.346;2023-07-16T01:16:43;97782.59;;;17.61;69.96
81545;BME280;70990;50.618;7.346;2023-07-16T01:19:10;97779.31;;;17.53;69.95
81545;BME280;70990;50.618;7.346;2023-07-16T01:27:22;97784.91;;;17.44;70.00
81545;BME280;70990;50.618;7.346;2023-07-16T01:30:02;97787.69;;;17.53;69.25
81545;BME280;70990;50.618;7.346;2023-07-16T01:32:33;97794.22;;;17.50;69.61
81545;BME280;70990;50.618;7.346;2023-07-16T01:35:02;97794.22;;;17.50;69.58
81545;BME280;70990;50.618;7.346;2023-07-16T01:37:29;97790.50;;;17.44;70.14
81545;BME280;70990;50.618;7.346;2023-07-16T01:39:55;97795.16;;;17.47;70.00
81545;BME280;70990;50.618;7.346;2023-07-16T01:42:22;97805.88;;;17.40;70.30
81545;BME280;70990;50.618;7.346;2023-07-16T01:44:49;97811.47;;;17.30;70.92
81545;BME280;70990;50.618;7.346;2023-07-16T01:47:45;97806.06;;;17.27;71.03
81545;BME280;70990;50.618;7.346;2023-07-16T01:50:16;97802.94;;;17.25;71.14
81545;BME280;70990;50.618;7.346;2023-07-16T01:52:43;97804.97;;;17.24;70.69
81545;BME280;70990;50.618;7.346;2023-07-16T01:55:10;97810.88;;;17.26;71.08
81545;BME280;70990;50.618;7.346;2023-07-16T01:57:36;97814.13;;;17.25;70.22
81545;BME280;70990;50.618;7.346;2023-07-16T02:00:03;97818.78;;;17.28;70.63
81545;BME280;70990;50.618;7.346;2023-07-16T02:02:30;97821.91;;;17.21;70.38
81545;BME280;70990;50.618;7.346;2023-07-16T02:04:57;97815.06;;;17.22;70.40
81545;BME280;70990;50.618;7.346;2023-07-16T02:07:23;97816.78;;;17.19;69.56
81545;BME280;70990;50.618;7.346;2023-07-16T02:09:50;97823.44;;;17.22;69.43
81545;BME280;70990;50.618;7.346;2023-07-16T02:12:17;97829.19;;;17.18;69.67
81545;BME280;70990;50.618;7.346;2023-07-16T02:14:43;97825.63;;;17.09;70.00
81545;BME280;70990;50.618;7.346;2023-07-16T02:17:10;97822.53;;;17.07;70.20
81545;BME280;70990;50.618;7.346;2023-07-16T02:19:36;97823.16;;;17.02;69.96
81545;BME280;70990;50.618;7.346;2023-07-16T02:22:03;97832.63;;;17.04;70.41
81545;BME280;70990;50.618;7.346;2023-07-16T02:24:30;97835.72;;;16.97;70.36
81545;BME280;70990;50.618;7.346;2023-07-16T02:26:56;97836.81;;;16.90;70.74
81545;BME280;70990;50.618;7.346;2023-07-16T02:29:23;97840.22;;;16.85;71.08
81545;BME280;70990;50.618;7.346;2023-07-16T02:31:49;97842.69;;;16.83;70.65
81545;BME280;70990;50.618;7.346;2023-07-16T02:34:16;97854.16;;;16.76;70.66
81545;BME280;70990;50.618;7.346;2023-07-16T02:36:43;97853.25;;;16.79;69.96
81545;BME280;70990;50.618;7.346;2023-07-16T02:39:10;97856.00;;;16.70;70.38
81545;BME280;70990;50.618;7.346;2023-07-16T02:41:37;97859.13;;;16.72;69.98
81545;BME280;70990;50.618;7.346;2023-07-16T02:44:05;97868.72;;;16.71;70.07
81545;BME280;70990;50.618;7.346;2023-07-16T02:46:32;97868.72;;;16.71;69.71
81545;BME280;70990;50.618;7.346;2023-07-16T02:49:00;97873.97;;;16.69;69.48
81545;BME280;70990;50.618;7.346;2023-07-16T02:51:27;97876.78;;;16.60;70.02
81545;BME280;70990;50.618;7.346;2023-07-16T02:53:54;97882.94;;;16.55;70.03
81545;BME280;70990;50.618;7.346;2023-07-16T02:56:20;97879.94;;;16.49;70.60
81545;BME280;70990;50.618;7.346;2023-07-16T02:58:47;97885.22;;;16.47;70.13
81545;BME280;70990;50.618;7.346;2023-07-16T03:01:14;97884.72;;;16.40;70.89
81545;BME280;70990;50.618;7.346;2023-07-16T03:03:41;97880.72;;;16.41;70.64
81545;BME280;70990;50.618;7.346;2023-07-16T03:06:08;97885.63;;;16.37;70.82
81545;BME280;70990;50.618;7.346;2023-07-16T03:08:34;97891.81;;;16.32;71.33
81545;BME280;70990;50.618;7.346;2023-07-16T03:11:01;97898.34;;;16.29;71.19
81545;BME280;70990;50.618;7.346;2023-07-16T03:13:28;97904.03;;;16.25;71.35
81545;BME280;70990;50.618;7.346;2023-07-16T03:15:55;97901.75;;;16.33;71.21
81545;BME280;70990;50.618;7.346;2023-07-16T03:18:21;97906.38;;;16.27;71.13
81545;BME280;70990;50.618;7.346;2023-07-16T03:20:48;97911.78;;;16.21;71.43
81545;BME280;70990;50.618;7.346;2023-07-16T03:23:14;97913.94;;;16.17;71.81
81545;BME280;70990;50.618;7.346;2023-07-16T03:25:41;97917.78;;;16.10;71.50
81545;BME280;70990;50.618;7.346;2023-07-16T03:28:08;97932.16;;;16.09;72.27
81545;BME280;70990;50.618;7.346;2023-07-16T03:30:35;97925.66;;;16.12;71.74
81545;BME280;70990;50.618;7.346;2023-07-16T03:33:02;97928.75;;;16.05;72.01
81545;BME280;70990;50.618;7.346;2023-07-16T03:35:28;97927.97;;;16.04;71.58
81545;BME280;70990;50.618;7.346;2023-07-16T03:37:55;97937.59;;;16.12;70.67
81545;BME280;70990;50.618;7.346;2023-07-16T03:40:25;97923.66;;;16.12;70.28
81545;BME280;70990;50.618;7.346;2023-07-16T03:42:52;97928.94;;;16.10;70.42
81545;BME280;70990;50.618;7.346;2023-07-16T03:45:19;97932.34;;;16.14;70.10
81545;BME280;70990;50.618;7.346;2023-07-16T03:47:46;97932.06;;;16.22;69.47
81545;BME280;70990;50.618;7.346;2023-07-16T03:50:13;97921.69;;;16.22;69.03
81545;BME280;70990;50.618;7.346;2023-07-16T03:52:39;97934.69;;;16.16;69.12
81545;BME280;70990;50.618;7.346;2023-07-16T03:55:06;97937.13;;;16.14;69.72
81545;BME280;70990;50.618;7.346;2023-07-16T03:57:33;97940.53;;;16.09;69.87
81545;BME280;70990;50.618;7.346;2023-07-16T03:59:59;97930.44;;;16.02;70.05
81545;BME280;70990;50.618;7.346;2023-07-16T04:02:28;97938.78;;;16.02;71.01
81545;BME280;70990;50.618;7.346;2023-07-16T04:04:57;97947.78;;;16.06;69.73
81545;BME280;70990;50.618;7.346;2023-07-16T04:07:24;97937.75;;;16.18;68.54
81545;BME280;70990;50.618;7.346;2023-07-16T04:09:51;97945.41;;;16.27;68.83
81545;BME280;70990;50.618;7.346;2023-07-16T04:12:17;97949.13;;;16.24;69.03
81545;BME280;70990;50.618;7.346;2023-07-16T04:14:44;97955.78;;;16.26;69.48
81545;BME280;70990;50.618;7.346;2023-07-16T04:17:10;97961.53;;;16.32;68.71
81545;BME280;70990;50.618;7.346;2023-07-16T04:19:37;97957.84;;;16.35;68.61
81545;BME280;70990;50.618;7.346;2023-07-16T04:22:04;97962.84;;;16.18;68.94
81545;BME280;70990;50.618;7.346;2023-07-16T04:24:31;97967.69;;;16.18;68.52
81545;BME280;70990;50.618;7.346;2023-07-16T04:26:58;97962.22;;;16.14;68.56
81545;BME280;70990;50.618;7.346;2023-07-16T04:29:25;97960.06;;;16.18;68.70
81545;BME280;70990;50.618;7.346;2023-07-16T04:31:51;97960.84;;;16.19;69.28
81545;BME280;70990;50.618;7.346;2023-07-16T04:34:18;97958.72;;;16.23;68.90
81545;BME280;70990;50.618;7.346;2023-07-16T04:36:44;97956.03;;;16.10;70.11
81545;BME280;70990;50.618;7.346;2023-07-16T04:39:11;97966.56;;;16.15;69.95
81545;BME280;70990;50.618;7.346;2023-07-16T04:41:38;97973.56;;;16.20;69.98
81545;BME280;70990;50.618;7.346;2023-07-16T04:44:04;97969.69;;;16.17;70.87
81545;BME280;70990;50.618;7.346;2023-07-16T04:46:31;97976.16;;;16.14;70.58
81545;BME280;70990;50.618;7.346;2023-07-16T04:48:58;97976.31;;;16.10;72.41
81545;BME280;70990;50.618;7.346;2023-07-16T04:51:25;97987.00;;;16.12;70.96
81545;BME280;70990;50.618;7.346;2023-07-16T04:53:51;97979.66;;;16.05;71.91
81545;BME280;70990;50.618;7.346;2023-07-16T04:56:18;97984.34;;;16.08;71.78
81545;BME280;70990;50.618;7.346;2023-07-16T04:58:47;97981.81;;;16.01;72.19
81545;BME280;70990;50.618;7.346;2023-07-16T05:01:14;97979.28;;;15.94;72.52
81545;BME280;70990;50.618;7.346;2023-07-16T05:03:40;97986.75;;;15.97;72.49
81545;BME280;70990;50.618;7.346;2023-07-16T05:06:07;97989.53;;;15.97;72.29
81545;BME280;70990;50.618;7.346;2023-07-16T05:08:33;97983.72;;;16.04;70.68
81545;BME280;70990;50.618;7.346;2023-07-16T05:11:01;97995.69;;;16.14;70.02
81545;BME280;70990;50.618;7.346;2023-07-16T05:13:28;97990.16;;;16.23;69.51
81545;BME280;70990;50.618;7.346;2023-07-16T05:15:55;97997.78;;;16.32;68.70
81545;BME280;70990;50.618;7.346;2023-07-16T05:18:21;98005.06;;;16.29;68.97
81545;BME280;70990;50.618;7.346;2023-07-16T05:20:48;98006.53;;;16.43;67.99
81545;BME280;70990;50.618;7.346;2023-07-16T05:23:15;98016.59;;;16.40;67.21
81545;BME280;70990;50.618;7.346;2023-07-16T05:25:49;98016.44;;;16.44;67.62
81545;BME280;70990;50.618;7.346;2023-07-16T05:28:18;98013.84;;;16.49;66.10
81545;BME280;70990;50.618;7.346;2023-07-16T05:30:45;98024.72;;;16.57;66.88
81545;BME280;70990;50.618;7.346;2023-07-16T05:33:12;98030.56;;;16.49;66.60
81545;BME280;70990;50.618;7.346;2023-07-16T05:35:39;98027.78;;;16.49;65.55
81545;BME280;70990;50.618;7.346;2023-07-16T05:38:06;98039.66;;;16.63;66.21
81545;BME280;70990;50.618;7.346;2023-07-16T05:40:32;98034.19;;;16.59;65.02
81545;BME280;70990;50.618;7.346;2023-07-16T05:42:59;98049.25;;;16.62;64.38
81545;BME280;70990;50.618;7.346;2023-07-16T05:45:25;98043.59;;;16.74;64.03
81545;BME280;70990;50.618;7.346;2023-07-16T05:47:52;98043.47;;;16.87;62.93
81545;BME280;70990;50.618;7.346;2023-07-16T05:50:18;98044.59;;;16.89;62.49
81545;BME280;70990;50.618;7.346;2023-07-16T05:52:45;98051.56;;;16.94;62.72
81545;BME280;70990;50.618;7.346;2023-07-16T05:55:11;98053.34;;;17.10;62.36
81545;BME280;70990;50.618;7.346;2023-07-16T05:57:38;98057.31;;;17.00;60.38
81545;BME280;70990;50.618;7.346;2023-07-16T06:00:05;98049.38;;;17.29;62.14
81545;BME280;70990;50.618;7.346;2023-07-16T06:02:37;98062.50;;;17.19;58.51
81545;BME280;70990;50.618;7.346;2023-07-16T06:05:04;98060.78;;;17.13;59.54
81545;BME280;70990;50.618;7.346;2023-07-16T06:07:31;98065.91;;;17.14;59.30
81545;BME280;70990;50.618;7.346;2023-07-16T06:09:58;98069.31;;;17.18;58.41
81545;BME280;70990;50.618;7.346;2023-07-16T06:12:25;98060.50;;;17.20;59.38
81545;BME280;70990;50.618;7.346;2023-07-16T06:14:51;98063.66;;;17.40;57.88
81545;BME280;70990;50.618;7.346;2023-07-16T06:17:18;98061.47;;;17.35;58.97
81545;BME280;70990;50.618;7.346;2023-07-16T06:19:45;98073.56;;;17.23;58.51
81545;BME280;70990;50.618;7.346;2023-07-16T06:22:12;98067.69;;;17.30;57.74
81545;BME280;70990;50.618;7.346;2023-07-16T06:24:39;98067.97;;;17.32;56.66
81545;BME280;70990;50.618;7.346;2023-07-16T06:27:05;98069.72;;;17.48;58.42
81545;BME280;70990;50.618;7.346;2023-07-16T06:29:32;98069.56;;;17.51;56.71
81545;BME280;70990;50.618;7.346;2023-07-16T06:31:59;98066.38;;;17.71;56.29
81545;BME280;70990;50.618;7.346;2023-07-16T06:34:25;98064.59;;;17.55;55.10
81545;BME280;70990;50.618;7.346;2023-07-16T06:36:52;98063.97;;;17.51;55.02
81545;BME280;70990;50.618;7.346;2023-07-16T06:39:19;98080.75;;;17.51;54.84
81545;BME280;70990;50.618;7.346;2023-07-16T06:41:46;98068.31;;;17.43;54.95
81545;BME280;70990;50.618;7.346;2023-07-16T06:44:13;98070.84;;;17.59;54.88
81545;BME280;70990;50.618;7.346;2023-07-16T06:46:39;98066.53;;;17.67;53.49
81545;BME280;70990;50.618;7.346;2023-07-16T06:49:06;98077.19;;;17.60;54.34
81545;BME280;70990;50.618;7.346;2023-07-16T06:51:33;98083.31;;;17.67;54.10
81545;BME280;70990;50.618;7.346;2023-07-16T06:53:59;98075.22;;;17.88;53.19
81545;BME280;70990;50.618;7.346;2023-07-16T06:56:26;98066.84;;;17.79;53.54
81545;BME280;70990;50.618;7.346;2023-07-16T06:58:53;98067.75;;;17.94;53.49
81545;BME280;70990;50.618;7.346;2023-07-16T07:01:19;98071.81;;;18.11;52.70
81545;BME280;70990;50.618;7.346;2023-07-16T07:03:46;98066.22;;;18.11;52.96
81545;BME280;70990;50.618;7.346;2023-07-16T07:06:14;98062.47;;;18.23;53.26
81545;BME280;70990;50.618;7.346;2023-07-16T07:08:41;98074.41;;;18.33;51.96
81545;BME280;70990;50.618;7.346;2023-07-16T07:11:08;98076.94;;;18.22;51.12
81545;BME280;70990;50.618;7.346;2023-07-16T07:13:34;98074.63;;;18.11;51.46
81545;BME280;70990;50.618;7.346;2023-07-16T07:16:01;98075.19;;;18.24;51.79
81545;BME280;70990;50.618;7.346;2023-07-16T07:18:27;98074.09;;;18.40;51.04
81545;BME280;70990;50.618;7.346;2023-07-16T07:20:54;98073.78;;;18.38;49.40
81545;BME280;70990;50.618;7.346;2023-07-16T07:23:20;98072.41;;;18.33;50.33
81545;BME280;70990;50.618;7.346;2023-07-16T07:25:51;98072.22;;;18.37;50.69
81545;BME280;70990;50.618;7.346;2023-07-16T07:28:19;98063.66;;;18.49;49.99
81545;BME280;70990;50.618;7.346;2023-07-16T07:30:46;98075.78;;;18.56;49.80
81545;BME280;70990;50.618;7.346;2023-07-16T07:33:13;98072.38;;;18.51;47.90
81545;BME280;70990;50.618;7.346;2023-07-16T07:35:39;98068.00;;;18.50;47.68
81545;BME280;70990;50.618;7.346;2023-07-16T07:38:06;98073.00;;;18.56;47.45
81545;BME280;70990;50.618;7.346;2023-07-16T07:40:32;98074.69;;;18.44;47.78
81545;BME280;70990;50.618;7.346;2023-07-16T07:42:59;98075.03;;;18.46;47.34
81545;BME280;70990;50.618;7.346;2023-07-16T07:45:26;98082.94;;;18.66;47.81
81545;BME280;70990;50.618;7.346;2023-07-16T07:47:52;98078.34;;;18.86;47.41
81545;BME280;70990;50.618;7.346;2023-07-16T07:50:19;98078.25;;;18.72;47.68
81545;BME280;70990;50.618;7.346;2023-07-16T07:52:45;98097.53;;;18.79;47.23
81545;BME280;70990;50.618;7.346;2023-07-16T07:55:12;98087.50;;;18.96;47.31
81545;BME280;70990;50.618;7.346;2023-07-16T07:57:38;98094.41;;;18.77;46.37
81545;BME280;70990;50.618;7.346;2023-07-16T08:00:06;98086.97;;;18.65;46.52
81545;BME280;70990;50.618;7.346;2023-07-16T08:02:37;98096.28;;;18.71;46.32
81545;BME280;70990;50.618;7.346;2023-07-16T08:05:05;98089.06;;;18.97;46.14
81545;BME280;70990;50.618;7.346;2023-07-16T08:07:32;98086.63;;;19.14;46.07
81545;BME280;70990;50.618;7.346;2023-07-16T08:09:58;98090.56;;;19.40;46.30
81545;BME280;70990;50.618;7.346;2023-07-16T08:12:25;98076.56;;;19.07;45.20
81545;BME280;70990;50.618;7.346;2023-07-16T08:14:52;98092.72;;;19.12;44.36
81545;BME280;70990;50.618;7.346;2023-07-16T08:17:18;98101.69;;;19.25;44.09
81545;BME280;70990;50.618;7.346;2023-07-16T08:19:49;98081.84;;;19.38;43.98
81545;BME280;70990;50.618;7.346;2023-07-16T08:22:15;98093.66;;;19.09;44.58
81545;BME280;70990;50.618;7.346;2023-07-16T08:24:42;98092.72;;;19.12;44.32
81545;BME280;70990;50.618;7.346;2023-07-16T08:27:09;98086.00;;;19.43;45.44
81545;BME280;70990;50.618;7.346;2023-07-16T08:29:36;98090.38;;;19.53;43.17
81545;BME280;70990;50.618;7.346;2023-07-16T08:32:03;98094.72;;;19.45;43.16
81545;BME280;70990;50.618;7.346;2023-07-16T08:34:30;98095.28;;;19.25;44.02
81545;BME280;70990;50.618;7.346;2023-07-16T08:36:56;98089.47;;;19.47;43.57
81545;BME280;70990;50.618;7.346;2023-07-16T08:39:23;98090.53;;;19.73;43.65
81545;BME280;70990;50.618;7.346;2023-07-16T08:41:52;98090.06;;;19.51;44.55
81545;BME280;70990;50.618;7.346;2023-07-16T08:44:20;98101.00;;;19.72;43.49
81545;BME280;70990;50.618;7.346;2023-07-16T08:46:46;98097.09;;;19.70;43.30
81545;BME280;70990;50.618;7.346;2023-07-16T08:49:13;98093.59;;;19.60;43.93
81545;BME280;70990;50.618;7.346;2023-07-16T08:51:43;98107.72;;;19.66;43.88
81545;BME280;70990;50.618;7.346;2023-07-16T08:54:11;98105.09;;;19.62;42.92
81545;BME280;70990;50.618;7.346;2023-07-16T08:56:37;98107.72;;;19.66;43.28
81545;BME280;70990;50.618;7.346;2023-07-16T08:59:05;98101.22;;;19.84;42.57
81545;BME280;70990;50.618;7.346;2023-07-16T09:01:31;98118.63;;;19.64;41.63
81545;BME280;70990;50.618;7.346;2023-07-16T09:03:58;98121.94;;;19.86;41.71
81545;BME280;70990;50.618;7.346;2023-07-16T09:06:25;98109.28;;;19.67;41.49
81545;BME280;70990;50.618;7.346;2023-07-16T09:08:52;98132.31;;;19.71;43.31
81545;BME280;70990;50.618;7.346;2023-07-16T09:11:18;98122.50;;;19.90;41.46
81545;BME280;70990;50.618;7.346;2023-07-16T09:13:45;98121.72;;;20.13;41.93
81545;BME280;70990;50.618;7.346;2023-07-16T09:16:12;98150.97;;;20.60;40.58
81545;BME280;70990;50.618;7.346;2023-07-16T09:18:39;98128.22;;;20.20;40.19
81545;BME280;70990;50.618;7.346;2023-07-16T09:21:06;98128.81;;;20.24;40.39
81545;BME280;70990;50.618;7.346;2023-07-16T09:23:33;98127.06;;;20.26;41.16
81545;BME280;70990;50.618;7.346;2023-07-16T09:25:59;98135.13;;;20.33;39.89
81545;BME280;70990;50.618;7.346;2023-07-16T09:28:26;98129.91;;;20.02;40.19
81545;BME280;70990;50.618;7.346;2023-07-16T09:30:53;98129.97;;;20.32;40.35
81545;BME280;70990;50.618;7.346;2023-07-16T09:33:21;98133.94;;;20.25;39.79
81545;BME280;70990;50.618;7.346;2023-07-16T09:35:49;98126.53;;;20.37;40.26
81545;BME280;70990;50.618;7.346;2023-07-16T09:38:17;98127.34;;;20.52;40.13
81545;BME280;70990;50.618;7.346;2023-07-16T09:40:45;98143.44;;;20.66;39.17
81545;BME280;70990;50.618;7.346;2023-07-16T09:43:12;98126.84;;;20.68;39.20
81545;BME280;70990;50.618;7.346;2023-07-16T09:45:40;98139.91;;;20.42;40.01
81545;BME280;70990;50.618;7.346;2023-07-16T09:48:07;98132.97;;;20.81;39.32
81545;BME280;70990;50.618;7.346;2023-07-16T09:50:35;98135.94;;;20.63;39.49
81545;BME280;70990;50.618;7.346;2023-07-16T09:53:04;98145.72;;;20.68;40.53
81545;BME280;70990;50.618;7.346;2023-07-16T09:55:33;98135.09;;;20.86;40.32
81545;BME280;70990;50.618;7.346;2023-07-16T09:58:09;98137.03;;;20.80;39.31
81545;BME280;70990;50.618;7.346;2023-07-16T10:00:37;98139.34;;;20.97;39.18
81545;BME280;70990;50.618;7.346;2023-07-16T10:03:08;98133.16;;;21.22;39.88
81545;BME280;70990;50.618;7.346;2023-07-16T10:05:37;98133.09;;;21.51;38.84
81545;BME280;70990;50.618;7.346;2023-07-16T10:08:04;98128.88;;;21.61;38.93
81545;BME280;70990;50.618;7.346;2023-07-16T10:10:53;98128.03;;;21.20;37.87
81545;BME280;70990;50.618;7.346;2023-07-16T10:13:22;98128.09;;;21.26;37.67
81545;BME280;70990;50.618;7.346;2023-07-16T10:15:55;98137.75;;;21.54;38.92
81545;BME280;70990;50.618;7.346;2023-07-16T10:18:28;98143.53;;;21.65;37.94
81545;BME280;70990;50.618;7.346;2023-07-16T10:21:00;98135.94;;;21.71;37.96
81545;BME280;70990;50.618;7.346;2023-07-16T10:23:36;98132.13;;;21.54;38.51
81545;BME280;70990;50.618;7.346;2023-07-16T10:26:05;98131.13;;;21.57;38.25
81545;BME280;70990;50.618;7.346;2023-07-16T10:28:35;98135.19;;;21.56;38.44
81545;BME280;70990;50.618;7.346;2023-07-16T10:31:02;98135.31;;;21.82;37.84
81545;BME280;70990;50.618;7.346;2023-07-16T10:33:29;98137.69;;;21.49;37.96
81545;BME280;70990;50.618;7.346;2023-07-16T10:35:57;98145.44;;;21.39;39.01
81545;BME280;70990;50.618;7.346;2023-07-16T10:38:24;98147.31;;;21.62;37.47
81545;BME280;70990;50.618;7.346;2023-07-16T10:40:50;98146.78;;;21.79;37.78
81545;BME280;70990;50.618;7.346;2023-07-16T10:43:18;98141.19;;;22.19;37.54
81545;BME280;70990;50.618;7.346;2023-07-16T10:45:47;98141.28;;;22.04;37.16
81545;BME280;70990;50.618;7.346;2023-07-16T10:48:13;98147.56;;;21.79;36.83
81545;BME280;70990;50.618;7.346;2023-07-16T10:50:42;98138.47;;;21.69;37.72
81545;BME280;70990;50.618;7.346;2023-07-16T10:53:10;98135.78;;;21.95;37.02
81545;BME280;70990;50.618;7.346;2023-07-16T10:55:38;98141.00;;;21.88;36.83
81545;BME280;70990;50.618;7.346;2023-07-16T10:58:05;98139.81;;;21.94;38.65
81545;BME280;70990;50.618;7.346;2023-07-16T11:00:32;98137.50;;;21.93;35.82
81545;BME280;70990;50.618;7.346;2023-07-16T11:02:58;98139.91;;;22.40;35.47
81545;BME280;70990;50.618;7.346;2023-07-16T11:05:25;98137.94;;;22.46;34.94
81545;BME280;70990;50.618;7.346;2023-07-16T11:07:51;98147.56;;;22.60;36.67
81545;BME280;70990;50.618;7.346;2023-07-16T11:10:22;98136.38;;;22.71;35.43
81545;BME280;70990;50.618;7.346;2023-07-16T11:12:53;98136.31;;;22.86;35.71
81545;BME280;70990;50.618;7.346;2023-07-16T11:15:49;98144.94;;;22.77;33.55
81545;BME280;70990;50.618;7.346;2023-07-16T11:18:16;98121.31;;;22.74;35.96
81545;BME280;70990;50.618;7.346;2023-07-16T11:20:42;98140.16;;;22.17;35.71
81545;BME280;70990;50.618;7.346;2023-07-16T11:23:10;98138.84;;;22.18;35.52
81545;BME280;70990;50.618;7.346;2023-07-16T11:25:37;98141.88;;;22.34;35.50
81545;BME280;70990;50.618;7.346;2023-07-16T11:28:04;98142.69;;;22.61;35.06
81545;BME280;70990;50.618;7.346;2023-07-16T11:30:30;98132.53;;;22.02;35.64
81545;BME280;70990;50.618;7.346;2023-07-16T11:32:58;98140.16;;;22.88;35.36
81545;BME280;70990;50.618;7.346;2023-07-16T11:35:25;98139.56;;;22.79;33.98
81545;BME280;70990;50.618;7.346;2023-07-16T11:37:54;98138.56;;;22.82;34.27
81545;BME280;70990;50.618;7.346;2023-07-16T11:40:20;98139.59;;;22.59;34.02
81545;BME280;70990;50.618;7.346;2023-07-16T11:42:47;98144.75;;;22.40;34.40
81545;BME280;70990;50.618;7.346;2023-07-16T11:45:18;98141.69;;;22.64;34.69
81545;BME280;70990;50.618;7.346;2023-07-16T11:47:45;98143.13;;;22.53;34.13
81545;BME280;70990;50.618;7.346;2023-07-16T11:50:12;98131.56;;;22.51;34.28
81545;BME280;70990;50.618;7.346;2023-07-16T11:52:41;98134.88;;;23.27;34.05
81545;BME280;70990;50.618;7.346;2023-07-16T11:55:08;98146.09;;;22.70;33.73
81545;BME280;70990;50.618;7.346;2023-07-16T11:57:35;98143.72;;;22.83;34.05
81545;BME280;70990;50.618;7.346;2023-07-16T12:00:03;98148.16;;;23.21;33.29
81545;BME280;70990;50.618;7.346;2023-07-16T12:02:30;98162.28;;;22.96;33.34
81545;BME280;70990;50.618;7.346;2023-07-16T12:04:57;98152.19;;;22.63;33.62
81545;BME280;70990;50.618;7.346;2023-07-16T12:07:31;98141.94;;;22.86;33.57
81545;BME280;70990;50.618;7.346;2023-07-16T12:09:59;98146.66;;;22.48;35.01
81545;BME280;70990;50.618;7.346;2023-07-16T12:12:25;98150.22;;;22.03;34.75
81545;BME280;70990;50.618;7.346;2023-07-16T12:14:52;98154.84;;;22.06;35.23
81545;BME280;70990;50.618;7.346;2023-07-16T12:17:18;98143.91;;;22.54;34.85
81545;BME280;70990;50.618;7.346;2023-07-16T12:19:45;98138.16;;;22.69;35.67
81545;BME280;70990;50.618;7.346;2023-07-16T12:22:12;98123.78;;;22.92;33.75
81545;BME280;70990;50.618;7.346;2023-07-16T12:24:38;98136.50;;;23.40;32.81
81545;BME280;70990;50.618;7.346;2023-07-16T12:27:05;98137.31;;;23.83;32.79
81545;BME280;70990;50.618;7.346;2023-07-16T12:29:32;98145.03;;;23.19;32.64
81545;BME280;70990;50.618;7.346;2023-07-16T12:31:58;98135.25;;;22.83;33.14
81545;BME280;70990;50.618;7.346;2023-07-16T12:34:25;98156.69;;;22.55;34.93
81545;BME280;70990;50.618;7.346;2023-07-16T12:36:52;98154.06;;;22.72;34.20
81545;BME280;70990;50.618;7.346;2023-07-16T12:39:18;98140.91;;;23.83;32.30
81545;BME280;70990;50.618;7.346;2023-07-16T12:41:45;98145.72;;;23.40;32.16
81545;BME280;70990;50.618;7.346;2023-07-16T12:44:12;98154.69;;;23.07;33.01
81545;BME280;70990;50.618;7.346;2023-07-16T12:46:38;98157.34;;;22.44;33.56
81545;BME280;70990;50.618;7.346;2023-07-16T12:49:05;98149.38;;;22.63;33.37
81545;BME280;70990;50.618;7.346;2023-07-16T12:51:31;98152.66;;;22.62;34.38
81545;BME280;70990;50.618;7.346;2023-07-16T12:53:58;98153.09;;;22.29;34.23
81545;BME280;70990;50.618;7.346;2023-07-16T12:56:25;98156.09;;;22.25;34.40
81545;BME280;70990;50.618;7.346;2023-07-16T12:58:51;98157.00;;;22.37;34.23
81545;BME280;70990;50.618;7.346;2023-07-16T13:01:18;98156.53;;;22.18;33.83
81545;BME280;70990;50.618;7.346;2023-07-16T13:03:45;98159.75;;;21.91;35.46
81545;BME280;70990;50.618;7.346;2023-07-16T13:06:11;98168.44;;;21.93;34.55